createdAt,value
2018-08-25T00:02:19.608Z,99269.00
2018-08-25T00:04:48.601Z,99267.00
2018-08-25T00:07:17.873Z,99259.00
2018-08-25T00:09:47.171Z,99261.00
2018-08-25T00:12:16.381Z,99253.00
2018-08-25T00:14:45.626Z,99253.00
2018-08-25T00:17:14.907Z,99250.00
2018-08-25T00:19:44.100Z,99249.00
2018-08-25T00:22:13.406Z,99242.00
2018-08-25T00:24:42.645Z,99246.00
2018-08-25T00:27:11.958Z,99243.00
2018-08-25T00:29:41.201Z,99247.00
2018-08-25T00:32:10.479Z,99254.00
2018-08-25T00:34:39.752Z,99260.00
2018-08-25T00:37:08.998Z,99263.00
2018-08-25T00:39:38.356Z,99268.00
2018-08-25T00:42:07.566Z,99263.00
2018-08-25T00:44:36.598Z,99260.00
2018-08-25T00:47:05.860Z,99267.00
2018-08-25T00:49:35.130Z,99271.00
2018-08-25T00:52:04.339Z,99263.00
2018-08-25T00:54:33.643Z,99250.00
2018-08-25T00:57:02.587Z,99255.00
2018-08-25T00:59:31.942Z,99245.00
2018-08-25T01:02:01.094Z,99257.00
2018-08-25T01:04:30.395Z,99250.00
2018-08-25T01:06:59.621Z,99248.00
2018-08-25T01:09:28.819Z,99252.00
2018-08-25T01:11:58.066Z,99259.00
2018-08-25T01:14:27.031Z,99258.00
2018-08-25T01:16:56.316Z,99268.00
2018-08-25T01:19:25.571Z,99260.00
2018-08-25T01:21:54.540Z,99268.00
2018-08-25T01:24:23.782Z,99272.00
2018-08-25T01:26:53.179Z,99280.00
2018-08-25T01:29:22.358Z,99280.00
2018-08-25T01:31:51.639Z,99285.00
2018-08-25T01:34:21.462Z,99284.00
2018-08-25T01:36:52.579Z,99275.00
2018-08-25T01:39:22.184Z,99267.00
2018-08-25T01:41:51.444Z,99261.00
2018-08-25T01:44:20.636Z,99257.00
2018-08-25T01:46:49.860Z,99250.00
2018-08-25T01:49:19.113Z,99250.00
2018-08-25T01:51:48.349Z,99242.00
2018-08-25T01:54:17.375Z,99236.00
2018-08-25T01:56:46.797Z,99234.00
2018-08-25T01:59:16.055Z,99239.00
2018-08-25T02:01:45.305Z,99237.00
2018-08-25T02:04:14.386Z,99241.00
2018-08-25T02:06:43.559Z,99234.00
2018-08-25T02:09:14.068Z,99228.00
2018-08-25T02:11:43.299Z,99230.00
2018-08-25T02:14:12.614Z,99222.00
2018-08-25T02:16:41.971Z,99220.00
2018-08-25T02:19:11.168Z,99216.00
2018-08-25T02:21:40.418Z,99212.00
2018-08-25T02:24:09.615Z,99209.00
2018-08-25T02:26:38.893Z,99218.00
2018-08-25T02:29:08.146Z,99215.00
2018-08-25T02:31:37.419Z,99215.00
2018-08-25T02:34:06.701Z,99224.00
2018-08-25T02:36:35.929Z,99215.00
2018-08-25T02:39:08.904Z,99207.00
2018-08-25T02:41:38.173Z,99211.00
2018-08-25T02:44:07.378Z,99198.00
2018-08-25T02:46:36.694Z,99189.00
2018-08-25T02:49:06.011Z,99176.00
2018-08-25T02:51:35.268Z,99164.00
2018-08-25T02:54:04.531Z,99158.00
2018-08-25T02:56:33.837Z,99150.00
2018-08-25T02:59:03.276Z,99152.00
2018-08-25T03:01:32.564Z,99150.00
2018-08-25T03:04:01.805Z,99143.00
2018-08-25T03:06:31.073Z,99156.00
2018-08-25T03:09:00.302Z,99145.00
2018-08-25T03:11:29.533Z,99150.00
2018-08-25T03:13:58.766Z,99153.00
2018-08-25T03:16:28.033Z,99149.00
2018-08-25T03:18:57.314Z,99156.00
2018-08-25T03:21:26.541Z,99158.00
2018-08-25T03:23:55.548Z,99160.00
2018-08-25T03:26:24.767Z,99165.00
2018-08-25T03:28:54.026Z,99158.00
2018-08-25T03:31:23.014Z,99156.00
2018-08-25T03:33:52.246Z,99153.00
2018-08-25T03:36:21.191Z,99161.00
2018-08-25T03:38:50.181Z,99157.00
2018-08-25T03:41:19.381Z,99153.00
2018-08-25T03:43:48.643Z,99148.00
2018-08-25T03:46:17.898Z,99138.00
2018-08-25T03:48:47.155Z,99138.00
2018-08-25T03:51:16.215Z,99146.00
2018-08-25T03:53:45.519Z,99140.00
2018-08-25T03:56:14.774Z,99150.00
2018-08-25T03:58:44.050Z,99145.00
2018-08-25T04:01:13.348Z,99140.00
2018-08-25T04:03:42.585Z,99139.00
2018-08-25T04:06:11.799Z,99142.00
2018-08-25T04:08:41.131Z,99152.00
2018-08-25T04:11:10.121Z,99147.00
2018-08-25T04:13:39.348Z,99147.00
2018-08-25T04:16:08.388Z,99147.00
2018-08-25T04:18:37.675Z,99147.00
2018-08-25T04:21:07.275Z,99146.00
2018-08-25T04:23:37.596Z,99153.00
2018-08-25T04:26:06.810Z,99158.00
2018-08-25T04:28:36.130Z,99158.00
2018-08-25T04:31:05.345Z,99157.00
2018-08-25T04:33:34.640Z,99151.00
2018-08-25T04:36:03.582Z,99150.00
2018-08-25T04:38:32.832Z,99153.00
2018-08-25T04:41:02.026Z,99150.00
2018-08-25T04:43:31.276Z,99149.00
2018-08-25T04:46:00.509Z,99152.00
2018-08-25T04:48:29.741Z,99160.00
2018-08-25T04:50:59.005Z,99159.00
2018-08-25T04:53:27.977Z,99158.00
2018-08-25T04:55:56.949Z,99161.00
2018-08-25T04:58:26.173Z,99160.00
2018-08-25T05:00:55.419Z,99157.00
2018-08-25T05:03:24.616Z,99148.00
2018-08-25T05:05:53.839Z,99150.00
2018-08-25T05:08:23.158Z,99154.00
2018-08-25T05:10:52.422Z,99147.00
2018-08-25T05:13:21.651Z,99148.00
2018-08-25T05:15:50.928Z,99152.00
2018-08-25T05:18:20.295Z,99156.00
2018-08-25T05:20:49.512Z,99153.00
2018-08-25T05:23:18.740Z,99148.00
2018-08-25T05:25:48.015Z,99147.00
2018-08-25T05:28:17.026Z,99140.00
2018-08-25T05:30:46.033Z,99139.00
2018-08-25T05:33:15.246Z,99146.00
2018-08-25T05:35:44.673Z,99144.00
2018-08-25T05:38:13.966Z,99144.00
2018-08-25T05:40:43.162Z,99143.00
2018-08-25T05:43:12.479Z,99144.00
2018-08-25T05:45:41.680Z,99148.00
2018-08-25T05:48:10.922Z,99152.00
2018-08-25T05:50:40.286Z,99151.00
2018-08-25T05:53:09.215Z,99151.00
2018-08-25T05:55:38.439Z,99151.00
2018-08-25T05:58:07.645Z,99159.00
2018-08-25T06:00:36.876Z,99155.00
2018-08-25T06:03:06.204Z,99149.00
2018-08-25T06:05:35.330Z,99161.00
2018-08-25T06:08:04.578Z,99154.00
2018-08-25T06:10:33.552Z,99163.00
2018-08-25T06:13:02.798Z,99173.00
2018-08-25T06:15:32.124Z,99169.00
2018-08-25T06:18:01.391Z,99171.00
2018-08-25T06:20:30.414Z,99165.00
2018-08-25T06:22:59.588Z,99168.00
2018-08-25T06:25:28.843Z,99169.00
2018-08-25T06:27:57.800Z,99171.00
2018-08-25T06:30:27.033Z,99162.00
2018-08-25T06:32:55.971Z,99162.00
2018-08-25T06:35:25.328Z,99163.00
2018-08-25T06:37:54.622Z,99163.00
2018-08-25T06:40:23.914Z,99162.00
2018-08-25T06:42:53.259Z,99157.00
2018-08-25T06:45:22.235Z,99151.00
2018-08-25T06:47:51.902Z,99161.00
2018-08-25T06:50:21.174Z,99157.00
2018-08-25T06:52:50.406Z,99151.00
2018-08-25T06:55:25.816Z,99151.00
2018-08-25T06:57:55.064Z,99155.00
2018-08-25T07:00:24.348Z,99154.00
2018-08-25T07:02:53.640Z,99159.00
2018-08-25T07:05:22.702Z,99160.00
2018-08-25T07:07:52.094Z,99174.00
2018-08-25T07:10:21.469Z,99170.00
2018-08-25T07:12:50.995Z,99175.00
2018-08-25T07:15:20.062Z,99178.00
2018-08-25T07:17:49.222Z,99175.00
2018-08-25T07:20:18.260Z,99178.00
2018-08-25T07:22:47.565Z,99184.00
2018-08-25T07:25:16.919Z,99175.00
2018-08-25T07:27:45.984Z,99179.00
2018-08-25T07:30:31.653Z,99180.00
2018-08-25T07:33:00.976Z,99188.00
2018-08-25T07:35:30.267Z,99187.00
2018-08-25T07:37:59.559Z,99185.00
2018-08-25T07:40:28.816Z,99188.00
2018-08-25T07:42:58.081Z,99193.00
2018-08-25T07:45:27.360Z,99195.00
2018-08-25T07:47:57.169Z,99191.00
2018-08-25T07:50:26.382Z,99179.00
2018-08-25T07:52:55.372Z,99181.00
2018-08-25T07:55:24.670Z,99181.00
2018-08-25T07:57:54.503Z,99183.00
2018-08-25T08:00:23.785Z,99181.00
2018-08-25T08:02:53.066Z,99170.00
2018-08-25T08:05:22.056Z,99173.00
2018-08-25T08:07:51.318Z,99178.00
2018-08-25T08:10:20.509Z,99177.00
2018-08-25T08:12:49.755Z,99172.00
2018-08-25T08:15:18.982Z,99174.00
2018-08-25T08:17:48.449Z,99170.00
2018-08-25T08:20:17.416Z,99161.00
2018-08-25T08:22:46.662Z,99161.00
2018-08-25T08:25:16.057Z,99158.00
2018-08-25T08:27:46.163Z,99161.00
2018-08-25T08:30:15.389Z,99171.00
2018-08-25T08:32:44.743Z,99174.00
2018-08-25T08:35:14.202Z,99172.00
2018-08-25T08:37:43.496Z,99160.00
2018-08-25T08:40:12.774Z,99157.00
2018-08-25T08:42:41.841Z,99155.00
2018-08-25T08:45:11.099Z,99152.00
2018-08-25T08:47:40.384Z,99151.00
2018-08-25T08:50:10.742Z,99158.00
2018-08-25T08:52:40.205Z,99144.00
2018-08-25T08:55:09.622Z,99151.00
2018-08-25T08:57:39.105Z,99151.00
2018-08-25T09:00:08.442Z,99148.00
2018-08-25T09:02:37.838Z,99156.00
2018-08-25T09:05:07.595Z,99152.00
2018-08-25T09:07:36.594Z,99154.00
2018-08-25T09:10:06.027Z,99150.00
2018-08-25T09:12:35.430Z,99152.00
2018-08-25T09:15:04.738Z,99147.00
2018-08-25T09:17:34.051Z,99152.00
2018-08-25T09:20:03.297Z,99147.00
2018-08-25T09:22:32.529Z,99151.00
2018-08-25T09:25:01.835Z,99143.00
2018-08-25T09:27:31.177Z,99140.00
2018-08-25T09:30:00.317Z,99142.00
2018-08-25T09:32:29.684Z,99137.00
2018-08-25T09:34:58.728Z,99140.00
2018-08-25T09:37:28.095Z,99131.00
2018-08-25T09:39:57.047Z,99132.00
2018-08-25T09:42:26.294Z,99135.00
2018-08-25T09:44:55.520Z,99137.00
2018-08-25T09:47:26.676Z,99136.00
2018-08-25T09:49:55.673Z,99133.00
2018-08-25T09:52:24.932Z,99126.00
2018-08-25T09:54:54.200Z,99130.00
2018-08-25T09:57:23.514Z,99126.00
2018-08-25T09:59:52.865Z,99124.00
2018-08-25T10:02:21.962Z,99135.00
2018-08-25T10:04:51.265Z,99133.00
2018-08-25T10:07:20.551Z,99131.00
2018-08-25T10:09:49.532Z,99139.00
2018-08-25T10:12:18.617Z,99140.00
2018-08-25T10:14:47.595Z,99136.00
2018-08-25T10:17:16.859Z,99145.00
2018-08-25T10:19:46.105Z,99128.00
2018-08-25T10:22:15.383Z,99116.00
2018-08-25T10:24:44.622Z,99117.00
2018-08-25T10:27:13.582Z,99118.00
2018-08-25T10:29:42.539Z,99114.00
2018-08-25T10:32:11.807Z,99109.00
2018-08-25T10:34:41.066Z,99108.00
2018-08-25T10:37:10.330Z,99106.00
2018-08-25T10:39:39.276Z,99108.00
2018-08-25T10:42:08.565Z,99097.00
2018-08-25T10:44:37.758Z,99104.00
2018-08-25T10:47:06.977Z,99099.00
2018-08-25T10:49:36.162Z,99112.00
2018-08-25T10:52:05.407Z,99117.00
2018-08-25T10:54:34.605Z,99116.00
2018-08-25T10:57:03.927Z,99113.00
2018-08-25T10:59:33.188Z,99115.00
2018-08-25T11:02:02.480Z,99123.00
2018-08-25T11:04:34.794Z,99126.00
2018-08-25T11:07:03.815Z,99127.00
2018-08-25T11:09:33.186Z,99136.00
2018-08-25T11:12:02.417Z,99141.00
2018-08-25T11:14:31.933Z,99139.00
2018-08-25T11:17:01.297Z,99147.00
2018-08-25T11:19:30.563Z,99152.00
2018-08-25T11:21:59.826Z,99155.00
2018-08-25T11:24:29.061Z,99164.00
2018-08-25T11:26:58.040Z,99180.00
2018-08-25T11:29:27.396Z,99178.00
2018-08-25T11:31:56.630Z,99175.00
2018-08-25T11:34:25.948Z,99181.00
2018-08-25T11:36:55.209Z,99176.00
2018-08-25T11:39:24.421Z,99176.00
2018-08-25T11:41:53.592Z,99180.00
2018-08-25T11:44:22.592Z,99173.00
2018-08-25T11:46:51.844Z,99178.00
2018-08-25T11:49:21.154Z,99175.00
2018-08-25T11:51:50.418Z,99182.00
2018-08-25T11:54:19.509Z,99185.00
2018-08-25T11:56:48.527Z,99179.00
2018-08-25T11:59:17.664Z,99184.00
2018-08-25T12:01:46.910Z,99196.00
2018-08-25T12:04:16.296Z,99187.00
2018-08-25T12:06:45.522Z,99192.00
2018-08-25T12:09:14.757Z,99182.00
2018-08-25T12:11:43.944Z,99181.00
2018-08-25T12:14:13.196Z,99189.00
2018-08-25T12:16:42.494Z,99189.00
2018-08-25T12:19:11.758Z,99180.00
2018-08-25T12:21:40.988Z,99183.00
2018-08-25T12:24:10.297Z,99180.00
2018-08-25T12:26:39.770Z,99183.00
2018-08-25T12:29:09.101Z,99189.00
2018-08-25T12:31:38.448Z,99189.00
2018-08-25T12:34:07.695Z,99184.00
2018-08-25T12:36:36.979Z,99175.00
2018-08-25T12:39:08.780Z,99180.00
2018-08-25T12:41:37.777Z,99171.00
2018-08-25T12:44:07.070Z,99171.00
2018-08-25T12:46:36.502Z,99178.00
2018-08-25T12:49:05.855Z,99168.00
2018-08-25T12:51:35.372Z,99174.00
2018-08-25T12:54:04.372Z,99178.00
2018-08-25T12:56:33.625Z,99174.00
2018-08-25T12:59:02.654Z,99176.00
2018-08-25T13:01:31.937Z,99172.00
2018-08-25T13:04:01.162Z,99167.00
2018-08-25T13:06:30.417Z,99167.00
2018-08-25T13:08:59.680Z,99169.00
2018-08-25T13:11:28.910Z,99164.00
2018-08-25T13:13:57.961Z,99168.00
2018-08-25T13:16:27.277Z,99168.00
2018-08-25T13:18:56.349Z,99172.00
2018-08-25T13:21:25.675Z,99162.00
2018-08-25T13:23:54.905Z,99150.00
2018-08-25T13:26:24.175Z,99147.00
2018-08-25T13:28:53.185Z,99153.00
2018-08-25T13:31:22.597Z,99144.00
2018-08-25T13:33:51.753Z,99158.00
2018-08-25T13:36:20.704Z,99161.00
2018-08-25T13:38:49.924Z,99161.00
2018-08-25T13:41:18.874Z,99158.00
2018-08-25T13:43:48.248Z,99152.00
2018-08-25T13:46:17.226Z,99156.00
2018-08-25T13:48:46.538Z,99159.00
2018-08-25T13:51:15.849Z,99162.00
2018-08-25T13:53:45.050Z,99164.00
2018-08-25T13:56:14.323Z,99163.00
2018-08-25T13:58:43.256Z,99169.00
2018-08-25T14:01:12.481Z,99167.00
2018-08-25T14:03:41.758Z,99166.00
2018-08-25T14:06:11.523Z,99167.00
2018-08-25T14:08:40.837Z,99166.00
2018-08-25T14:11:09.886Z,99168.00
2018-08-25T14:13:39.104Z,99171.00
2018-08-25T14:16:15.401Z,99173.00
2018-08-25T14:18:44.752Z,99179.00
2018-08-25T14:21:14.062Z,99179.00
2018-08-25T14:23:43.293Z,99184.00
2018-08-25T14:26:12.349Z,99175.00
2018-08-25T14:28:41.657Z,99167.00
2018-08-25T14:34:06.948Z,99159.00
2018-08-25T14:36:36.353Z,99170.00
2018-08-25T14:39:09.540Z,99170.00
2018-08-25T14:41:38.809Z,99175.00
2018-08-25T14:44:08.134Z,99166.00
2018-08-25T14:46:38.249Z,99166.00
2018-08-25T14:49:07.769Z,99174.00
2018-08-25T14:51:37.029Z,99166.00
2018-08-25T14:54:06.275Z,99169.00
2018-08-25T14:56:35.522Z,99170.00
2018-08-25T14:59:05.167Z,99171.00
2018-08-25T15:01:34.234Z,99169.00
2018-08-25T15:04:03.485Z,99163.00
2018-08-25T15:06:32.744Z,99166.00
2018-08-25T15:09:02.129Z,99175.00
2018-08-25T15:11:31.118Z,99168.00
2018-08-25T15:14:00.342Z,99165.00
2018-08-25T15:16:29.303Z,99176.00
2018-08-25T15:18:58.573Z,99163.00
2018-08-25T15:21:27.786Z,99172.00
2018-08-25T15:23:57.193Z,99176.00
2018-08-25T15:26:26.438Z,99179.00
2018-08-25T15:28:55.832Z,99179.00
2018-08-25T15:31:24.881Z,99176.00
2018-08-25T15:33:53.917Z,99179.00
2018-08-25T15:36:23.115Z,99179.00
2018-08-25T15:38:52.423Z,99179.00
2018-08-25T15:41:21.706Z,99177.00
2018-08-25T15:43:50.941Z,99176.00
2018-08-25T15:46:19.912Z,99181.00
2018-08-25T15:48:49.241Z,99176.00
2018-08-25T15:51:18.557Z,99185.00
2018-08-25T15:53:47.852Z,99193.00
2018-08-25T15:56:17.035Z,99185.00
2018-08-25T15:58:46.285Z,99201.00
2018-08-25T16:01:15.550Z,99191.00
2018-08-25T16:03:44.868Z,99197.00
2018-08-25T16:06:14.258Z,99204.00
2018-08-25T16:08:43.456Z,99196.00
2018-08-25T16:11:12.453Z,99202.00
2018-08-25T16:13:42.576Z,99197.00
2018-08-25T16:16:11.851Z,99205.00
2018-08-25T16:18:40.878Z,99207.00
2018-08-25T16:21:09.892Z,99200.00
2018-08-25T16:23:39.189Z,99203.00
2018-08-25T16:26:08.216Z,99206.00
2018-08-25T16:28:37.498Z,99209.00
2018-08-25T16:31:06.793Z,99218.00
2018-08-25T16:33:35.956Z,99213.00
2018-08-25T16:36:05.316Z,99218.00
2018-08-25T16:38:34.535Z,99221.00
2018-08-25T16:41:03.845Z,99228.00
2018-08-25T16:43:32.848Z,99215.00
2018-08-25T16:46:02.204Z,99226.00
2018-08-25T16:48:31.447Z,99235.00
2018-08-25T16:51:00.484Z,99229.00
2018-08-25T16:53:29.704Z,99232.00
2018-08-25T16:55:59.125Z,99232.00
2018-08-25T16:58:28.228Z,99234.00
2018-08-25T17:00:57.471Z,99235.00
2018-08-25T17:03:26.743Z,99228.00
2018-08-25T17:05:55.936Z,99237.00
2018-08-25T17:08:25.205Z,99243.00
2018-08-25T17:10:54.413Z,99235.00
2018-08-25T17:13:23.650Z,99228.00
2018-08-25T17:15:52.645Z,99236.00
2018-08-25T17:18:21.981Z,99236.00
2018-08-25T17:20:51.334Z,99245.00
2018-08-25T17:23:20.806Z,99243.00
2018-08-25T17:25:50.337Z,99252.00
2018-08-25T17:28:19.696Z,99245.00
2018-08-25T17:30:48.965Z,99240.00
2018-08-25T17:33:18.279Z,99246.00
2018-08-25T17:35:47.547Z,99246.00
2018-08-25T17:38:16.783Z,99252.00
2018-08-25T17:40:46.126Z,99256.00
2018-08-25T17:43:15.357Z,99248.00
2018-08-25T17:45:44.724Z,99248.00
2018-08-25T17:48:13.701Z,99259.00
2018-08-25T17:50:42.920Z,99256.00
2018-08-25T17:53:12.253Z,99252.00
2018-08-25T17:55:41.572Z,99258.00
2018-08-25T17:58:10.585Z,99258.00
2018-08-25T18:00:39.852Z,99262.00
2018-08-25T18:03:09.171Z,99262.00
2018-08-25T18:05:38.462Z,99274.00
2018-08-25T18:08:07.503Z,99266.00
2018-08-25T18:10:36.521Z,99271.00
2018-08-25T18:13:05.745Z,99279.00
2018-08-25T18:15:34.999Z,99282.00
2018-08-25T18:18:04.349Z,99288.00
2018-08-25T18:20:33.336Z,99289.00
2018-08-25T18:23:02.559Z,99294.00
2018-08-25T18:25:31.832Z,99290.00
2018-08-25T18:28:00.841Z,99296.00
2018-08-25T18:30:29.867Z,99291.00
2018-08-25T18:32:59.067Z,99299.00
2018-08-25T18:35:28.632Z,99299.00
2018-08-25T18:37:57.905Z,99313.00
2018-08-25T18:40:27.309Z,99318.00
2018-08-25T18:42:56.564Z,99320.00
2018-08-25T18:45:25.942Z,99320.00
2018-08-25T18:47:54.899Z,99330.00
2018-08-25T18:50:30.806Z,99330.00
2018-08-25T18:53:00.057Z,99344.00
2018-08-25T18:55:29.284Z,99338.00
2018-08-25T18:57:58.304Z,99340.00
2018-08-25T19:00:27.668Z,99340.00
2018-08-25T19:02:56.704Z,99342.00
2018-08-25T19:05:25.984Z,99343.00
2018-08-25T19:07:55.016Z,99340.00
2018-08-25T19:10:24.240Z,99350.00
2018-08-25T19:12:53.498Z,99351.00
2018-08-25T19:15:24.371Z,99345.00
2018-08-25T19:18:00.581Z,99350.00
2018-08-25T19:20:29.760Z,99349.00
2018-08-25T19:22:58.994Z,99358.00
2018-08-25T19:25:28.239Z,99357.00
2018-08-25T19:27:57.215Z,99364.00
2018-08-25T19:30:26.240Z,99364.00
2018-08-25T19:32:55.553Z,99363.00
2018-08-25T19:35:24.498Z,99367.00
2018-08-25T19:37:53.733Z,99370.00
2018-08-25T19:40:22.762Z,99380.00
2018-08-25T19:42:52.027Z,99368.00
2018-08-25T19:45:21.302Z,99369.00
2018-08-25T19:47:50.239Z,99372.00
2018-08-25T19:50:19.493Z,99378.00
2018-08-25T19:52:48.797Z,99385.00
2018-08-25T19:55:18.023Z,99385.00
2018-08-25T19:57:47.290Z,99383.00
2018-08-25T20:00:16.277Z,99390.00
2018-08-25T20:02:45.586Z,99390.00
2018-08-25T20:05:14.876Z,99396.00
2018-08-25T20:07:44.166Z,99389.00
2018-08-25T20:10:13.145Z,99398.00
2018-08-25T20:12:42.346Z,99392.00
2018-08-25T20:15:11.764Z,99393.00
2018-08-25T20:17:41.239Z,99402.00
2018-08-25T20:20:10.777Z,99398.00
2018-08-25T20:22:40.175Z,99397.00
2018-08-25T20:25:09.508Z,99401.00
2018-08-25T20:27:38.513Z,99400.00
2018-08-25T20:30:08.408Z,99405.00
2018-08-25T20:32:37.730Z,99405.00
2018-08-25T20:35:07.154Z,99414.00
2018-08-25T20:37:36.376Z,99411.00
2018-08-25T20:40:05.827Z,99415.00
2018-08-25T20:42:35.133Z,99419.00
2018-08-25T20:45:04.320Z,99422.00
2018-08-25T20:47:33.350Z,99418.00
2018-08-25T20:50:02.586Z,99421.00
2018-08-25T20:52:31.628Z,99429.00
2018-08-25T20:55:00.880Z,99418.00
2018-08-25T20:57:30.164Z,99421.00
2018-08-25T20:59:59.373Z,99424.00
2018-08-25T21:02:28.607Z,99420.00
2018-08-25T21:04:57.648Z,99418.00
2018-08-25T21:07:26.587Z,99419.00
2018-08-25T21:09:55.845Z,99423.00
2018-08-25T21:12:25.088Z,99418.00
2018-08-25T21:14:55.043Z,99430.00
2018-08-25T21:17:24.324Z,99436.00
2018-08-25T21:19:53.271Z,99437.00
2018-08-25T21:22:22.555Z,99432.00
2018-08-25T21:24:51.855Z,99439.00
2018-08-25T21:27:21.070Z,99442.00
2018-08-25T21:29:50.327Z,99451.00
2018-08-25T21:32:19.655Z,99448.00
2018-08-25T21:34:48.941Z,99458.00
2018-08-25T21:37:18.219Z,99463.00
2018-08-25T21:39:47.265Z,99450.00
2018-08-25T21:42:16.614Z,99454.00
2018-08-25T21:44:47.050Z,99461.00
2018-08-25T21:47:16.072Z,99460.00
2018-08-25T21:49:45.011Z,99470.00
2018-08-25T21:52:14.010Z,99471.00
2018-08-25T21:54:43.205Z,99468.00
2018-08-25T21:57:12.454Z,99476.00
2018-08-25T21:59:41.421Z,99484.00
2018-08-25T22:02:14.804Z,99486.00
2018-08-25T22:04:44.122Z,99483.00
2018-08-25T22:07:13.171Z,99496.00
2018-08-25T22:09:42.179Z,99485.00
2018-08-25T22:12:11.542Z,99491.00
2018-08-25T22:14:40.522Z,99500.00
2018-08-25T22:17:09.785Z,99499.00
2018-08-25T22:19:38.981Z,99506.00
2018-08-25T22:22:08.190Z,99510.00
2018-08-25T22:24:37.443Z,99508.00
2018-08-25T22:27:06.459Z,99511.00
2018-08-25T22:29:35.707Z,99513.00
2018-08-25T22:32:04.971Z,99512.00
2018-08-25T22:34:34.242Z,99517.00
2018-08-25T22:37:03.476Z,99520.00
2018-08-25T22:39:32.737Z,99525.00
2018-08-25T22:42:01.976Z,99520.00
2018-08-25T22:44:31.272Z,99519.00
2018-08-25T22:47:00.495Z,99528.00
2018-08-25T22:49:29.712Z,99528.00
2018-08-25T22:51:59.037Z,99529.00
2018-08-25T22:54:28.252Z,99531.00
2018-08-25T22:56:57.536Z,99531.00
2018-08-25T22:59:26.754Z,99534.00
2018-08-25T23:01:56.260Z,99536.00
2018-08-25T23:04:25.774Z,99536.00
2018-08-25T23:06:54.782Z,99528.00
2018-08-25T23:09:24.144Z,99528.00
2018-08-25T23:11:53.372Z,99524.00
2018-08-25T23:14:22.596Z,99535.00
2018-08-25T23:16:51.880Z,99543.00
2018-08-25T23:19:20.942Z,99540.00
2018-08-25T23:21:50.238Z,99540.00
2018-08-25T23:24:19.219Z,99531.00
2018-08-25T23:26:48.519Z,99525.00
2018-08-25T23:29:17.485Z,99524.00
2018-08-25T23:31:46.778Z,99516.00
2018-08-25T23:34:16.065Z,99515.00
2018-08-25T23:36:45.289Z,99511.00
2018-08-25T23:39:14.497Z,99518.00
2018-08-25T23:41:43.729Z,99521.00
2018-08-25T23:44:13.101Z,99522.00
2018-08-25T23:46:42.336Z,99532.00
2018-08-25T23:49:11.548Z,99532.00
2018-08-25T23:51:40.783Z,99531.00
2018-08-25T23:54:10.050Z,99532.00
2018-08-25T23:56:39.243Z,99542.00
2018-08-25T23:59:08.242Z,99532.00
